LIBD/BRI METAR and TAF weather

Enter ICAO airport designator
Station Type Date Time Source
LIBD METAR 2020/07/12 03:50 UTC NOAA

LIBD 120350Z 27004KT CAVOK 21/15 Q1013


Station Type Date Time Source
LIBD Decoded METAR 2020/07/12 03:50 UTC NOAA

Bari / Palese Macchie, Italy (LIBD) 41-08N 016-47E 49M
Jul 11, 2020 - 11:50 PM EDT / 2020.07.12 0350 UTC
Wind: from the W (270 degrees) at 5 MPH (4 KT):0
Visibility: greater than 7 mile(s):0
Temperature: 69 F (21 C)
Dew Point: 59 F (15 C)
Relative Humidity: 68%
Pressure (altimeter): 29.91 in. Hg (1013 hPa)
ob: LIBD 120350Z 27004KT CAVOK 21/15 Q1013
cycle: 4

Station Type Date Time Source
LIBD TAF 2020/07/11 18:21 UTC NOAA

TAF TAF LIBD 111700Z 1118/1218 VRB05KT CAVOK
BECMG 1206/1208 35012KT

Example: see airport list